createdAt,value
2023-03-13T00:01:25.002Z,28.50
2023-03-13T00:06:34.758Z,29.70
2023-03-13T00:11:39.559Z,28.08
2023-03-13T00:16:44.475Z,25.40
2023-03-13T00:21:51.898Z,30.05
2023-03-13T00:27:03.312Z,26.75
2023-03-13T00:32:08.481Z,28.15
2023-03-13T00:37:15.827Z,31.63
2023-03-13T00:42:20.757Z,26.75
2023-03-13T00:47:25.405Z,28.38
2023-03-13T00:52:32.716Z,24.30
2023-03-13T00:57:38.748Z,23.00
2023-03-13T01:02:46.569Z,24.33
2023-03-13T01:07:54.066Z,23.58
2023-03-13T01:12:58.714Z,21.42
2023-03-13T01:18:03.645Z,25.52
2023-03-13T01:23:11.064Z,26.25
2023-03-13T01:28:15.766Z,27.27
2023-03-13T01:33:20.522Z,29.10
2023-03-13T01:38:28.083Z,34.00
2023-03-13T01:43:33.779Z,35.65
2023-03-13T01:48:40.833Z,49.95
2023-03-13T01:53:50.395Z,40.58
2023-03-13T01:58:55.678Z,41.73
2023-03-13T02:04:01.017Z,39.05
2023-03-13T02:09:11.087Z,29.52
2023-03-13T02:14:16.327Z,32.72
2023-03-13T02:19:22.928Z,38.35
2023-03-13T02:24:34.910Z,34.30
2023-03-13T02:29:42.290Z,38.33
2023-03-13T02:34:47.651Z,33.38
2023-03-13T02:39:53.501Z,31.20
2023-03-13T02:45:00.798Z,37.53
2023-03-13T02:50:05.631Z,41.78
2023-03-13T02:55:12.561Z,37.20
2023-03-13T03:00:21.054Z,33.38
2023-03-13T03:05:26.041Z,35.88
2023-03-13T03:10:30.756Z,32.53
2023-03-13T03:15:38.050Z,32.85
2023-03-13T03:20:42.769Z,30.05
2023-03-13T03:25:47.651Z,33.33
2023-03-13T03:30:55.042Z,33.72
2023-03-13T03:36:02.461Z,35.72
2023-03-13T03:41:07.473Z,35.70
2023-03-13T03:46:14.889Z,30.95
2023-03-13T03:51:19.716Z,29.77
2023-03-13T03:56:27.339Z,35.28
2023-03-13T04:01:34.730Z,30.35
2023-03-13T04:06:39.464Z,35.60
2023-03-13T04:11:44.103Z,37.88
2023-03-13T04:16:51.423Z,41.60
2023-03-13T04:21:56.532Z,42.20
2023-03-13T04:27:02.802Z,44.33
2023-03-13T04:32:10.206Z,39.53
2023-03-13T04:37:14.938Z,39.97
2023-03-13T04:42:19.689Z,42.25
2023-03-13T04:47:26.986Z,40.22
2023-03-13T04:52:31.637Z,37.72
2023-03-13T04:57:36.312Z,40.35
2023-03-13T05:02:43.587Z,43.97
2023-03-13T05:07:48.295Z,42.55
2023-03-13T05:12:52.997Z,42.00
2023-03-13T05:18:00.356Z,40.72
2023-03-13T05:23:04.989Z,42.28
2023-03-13T05:28:09.936Z,38.58
2023-03-13T05:33:19.495Z,39.08
2023-03-13T05:38:24.157Z,33.23
2023-03-13T05:43:28.970Z,33.78
2023-03-13T05:48:36.309Z,31.50
2023-03-13T05:53:41.213Z,43.55
2023-03-13T05:58:45.913Z,36.13
2023-03-13T06:03:53.253Z,57.88
2023-03-13T06:08:58.155Z,36.00
2023-03-13T06:14:02.737Z,34.38
2023-03-13T06:19:10.088Z,43.88
2023-03-13T06:24:14.752Z,30.50
2023-03-13T06:29:20.287Z,38.67
2023-03-13T06:34:27.656Z,30.48
2023-03-13T06:39:32.468Z,32.47
2023-03-13T06:44:37.513Z,30.23
2023-03-13T06:49:44.859Z,30.23
2023-03-13T06:54:51.885Z,31.40
2023-03-13T06:59:56.719Z,33.15
2023-03-13T07:05:06.003Z,27.13
2023-03-13T07:10:11.708Z,25.33
2023-03-13T07:15:16.418Z,28.42
2023-03-13T07:20:23.862Z,18.75
2023-03-13T07:25:28.596Z,19.77
2023-03-13T07:30:33.310Z,26.90
2023-03-13T07:35:41.256Z,18.10
2023-03-13T07:40:50.789Z,43.67
2023-03-13T07:45:56.436Z,30.20
2023-03-13T07:51:03.974Z,17.50
2023-03-13T07:56:09.999Z,13.15
2023-03-13T08:01:15.601Z,17.27
2023-03-13T08:06:23.714Z,21.02
2023-03-13T08:11:29.460Z,15.25
2023-03-13T08:16:35.412Z,13.60
2023-03-13T08:21:42.932Z,24.05
2023-03-13T08:26:47.774Z,15.45
2023-03-13T08:31:53.948Z,16.50
2023-03-13T08:37:01.548Z,14.07
2023-03-13T08:42:06.388Z,11.90
2023-03-13T08:47:11.601Z,20.80
2023-03-13T08:52:18.909Z,12.80
2023-03-13T08:57:23.554Z,12.05
2023-03-13T09:02:30.719Z,12.85
2023-03-13T09:07:38.916Z,10.73
2023-03-13T09:12:43.668Z,13.35
2023-03-13T09:44:51.239Z,22.77
2023-03-13T09:49:57.748Z,9.32
2023-03-13T09:55:04.732Z,14.57
2023-03-13T10:00:16.048Z,18.05
2023-03-13T10:05:23.761Z,16.77
2023-03-13T10:10:31.975Z,14.55
2023-03-13T10:15:42.397Z,11.90
2023-03-13T10:20:49.028Z,11.93
2023-03-13T10:25:53.890Z,11.73
2023-03-13T10:31:07.040Z,11.80
2023-03-13T10:36:12.736Z,11.93
2023-03-13T10:41:22.758Z,9.55
2023-03-13T10:46:31.276Z,14.20
2023-03-13T10:51:39.541Z,21.13
2023-03-13T10:56:44.360Z,12.32
2023-03-13T11:01:51.746Z,11.52
2023-03-13T11:07:01.330Z,16.05
2023-03-13T11:17:22.339Z,15.60
2023-03-13T11:22:51.023Z,12.48
2023-03-13T11:28:02.726Z,15.35
2023-03-13T11:33:17.528Z,11.88
2023-03-13T11:38:23.921Z,11.77
2023-03-13T11:43:33.320Z,13.27
2023-03-13T11:48:46.066Z,13.80
2023-03-13T11:54:04.758Z,11.40
2023-03-13T11:59:21.968Z,11.05
2023-03-13T12:04:31.317Z,12.00
2023-03-13T12:09:37.768Z,11.13
2023-03-13T12:14:44.164Z,10.15
2023-03-13T12:19:55.120Z,8.13
2023-03-13T12:25:06.180Z,8.32
2023-03-13T12:30:22.178Z,10.15
2023-03-13T12:35:33.536Z,12.23
2023-03-13T12:40:40.779Z,10.18
2023-03-13T12:45:53.038Z,8.27
2023-03-13T12:51:06.969Z,7.28
2023-03-13T12:56:21.859Z,53.20
2023-03-13T13:01:33.648Z,28.33
2023-03-13T13:06:53.459Z,27.20
2023-03-13T13:12:01.708Z,7.50
2023-03-13T13:17:16.839Z,9.98
2023-03-13T13:22:57.697Z,11.18
2023-03-13T13:28:27.743Z,13.27
2023-03-13T13:33:42.199Z,6.70
2023-03-13T13:38:47.036Z,6.93
2023-03-13T13:44:14.429Z,6.75
2023-03-13T13:49:20.229Z,7.22
2023-03-13T14:58:45.696Z,10.70
2023-03-13T15:03:50.327Z,58.97
2023-03-13T15:09:09.857Z,8.73
2023-03-13T15:14:29.594Z,9.55
2023-03-13T15:20:09.608Z,10.17
2023-03-13T15:25:21.311Z,18.33
2023-03-13T15:30:26.164Z,42.25
2023-03-13T15:36:04.575Z,21.23
2023-03-13T15:41:12.492Z,9.50
2023-03-13T15:46:17.772Z,20.23
2023-03-13T15:51:22.979Z,7.53
2023-03-13T15:56:32.297Z,20.70
2023-03-13T16:01:37.147Z,6.10
2023-03-13T16:06:42.007Z,10.68
2023-03-13T16:11:49.450Z,8.65
2023-03-13T16:16:54.367Z,7.57
2023-03-13T16:21:59.200Z,7.82
2023-03-13T16:27:08.774Z,9.05
2023-03-13T16:32:14.381Z,8.68
2023-03-13T16:37:20.127Z,9.05
2023-03-13T16:42:27.556Z,55.33
2023-03-13T16:47:32.678Z,76.93
2023-03-13T16:52:37.347Z,111.68
2023-03-13T16:57:45.076Z,19.25
2023-03-13T17:02:50.071Z,25.85
2023-03-13T17:07:55.115Z,20.08
2023-03-13T17:13:03.038Z,23.95
2023-03-13T17:18:07.916Z,11.60
2023-03-13T17:23:13.076Z,13.73
2023-03-13T17:28:20.594Z,14.00
2023-03-13T17:33:25.439Z,29.13
2023-03-13T17:38:30.193Z,8.35
2023-03-13T17:43:37.548Z,11.00
2023-03-13T17:48:42.360Z,6.57
2023-03-13T17:53:47.143Z,10.43
2023-03-13T17:58:57.895Z,7.40
2023-03-13T18:04:03.045Z,19.52
2023-03-13T18:09:09.061Z,6.70
2023-03-13T18:14:16.644Z,5.10
2023-03-13T18:19:22.811Z,9.52
2023-03-13T18:24:27.706Z,10.52
2023-03-13T18:29:35.068Z,8.43
2023-03-13T18:34:39.838Z,9.98
2023-03-13T18:39:44.789Z,10.77
2023-03-13T18:44:52.204Z,9.98
2023-03-13T18:49:57.139Z,26.38
2023-03-13T18:55:01.965Z,14.63
2023-03-13T19:00:15.285Z,10.80
2023-03-13T19:05:20.301Z,11.57
2023-03-13T19:10:26.695Z,9.23
2023-03-13T19:15:34.829Z,6.72
2023-03-13T19:20:39.590Z,8.38
2023-03-13T19:25:44.575Z,10.93
2023-03-13T19:30:51.890Z,7.82
2023-03-13T19:35:56.643Z,7.65
2023-03-13T19:41:01.584Z,9.80
2023-03-13T19:46:20.588Z,15.93
2023-03-13T19:51:26.171Z,7.20
2023-03-13T19:56:31.800Z,7.72
2023-03-13T20:01:39.281Z,9.40
2023-03-13T20:06:44.433Z,15.27
2023-03-13T20:11:49.304Z,11.13
2023-03-13T20:17:06.233Z,9.88
2023-03-13T20:22:10.923Z,10.05
2023-03-13T20:27:15.810Z,9.68
2023-03-13T20:32:30.408Z,8.43
2023-03-13T20:37:35.310Z,8.95
2023-03-13T20:53:22.783Z,7.75
2023-03-13T20:58:27.610Z,8.52
2023-03-13T21:03:35.764Z,7.78
2023-03-13T21:08:43.699Z,37.17
2023-03-13T21:13:48.665Z,35.75
2023-03-13T21:18:53.505Z,10.77
2023-03-13T21:24:01.099Z,6.95
2023-03-13T21:29:13.379Z,9.77
2023-03-13T21:34:18.310Z,7.05
2023-03-13T21:39:25.796Z,15.13
2023-03-13T21:44:30.595Z,10.43
2023-03-13T21:49:35.429Z,9.10
2023-03-13T21:54:42.831Z,13.85
2023-03-13T21:59:47.698Z,12.50
2023-03-13T22:04:52.470Z,18.70
2023-03-13T22:10:00.012Z,7.97
2023-03-13T22:15:04.827Z,7.35
2023-03-13T22:20:11.591Z,8.38
2023-03-13T22:25:19.564Z,9.90
2023-03-13T22:30:24.440Z,5.57
2023-03-13T22:35:29.241Z,10.77
2023-03-13T22:40:36.948Z,7.10
2023-03-13T22:45:41.675Z,4.85
2023-03-13T22:50:46.472Z,6.28
2023-03-13T22:55:54.006Z,7.78
2023-03-13T23:00:59.158Z,5.38
2023-03-13T23:06:04.041Z,7.82
2023-03-13T23:11:11.570Z,6.18
2023-03-13T23:16:16.502Z,6.40
2023-03-13T23:21:21.501Z,5.00
2023-03-13T23:26:29.084Z,3.92
2023-03-13T23:31:34.203Z,5.72
2023-03-13T23:36:38.935Z,6.38
2023-03-13T23:41:46.539Z,5.43
2023-03-13T23:46:51.357Z,11.07
2023-03-13T23:51:56.136Z,6.85
2023-03-13T23:57:03.668Z,9.18
